Time;durP1;ratioP1;P1;durP2;ratioP2;P2;SDS_P1;SDS_P2;PMS_P1;PMS_P2;Temp;Humidity;BMP_temperature;BMP_pressure;BME280_temperature;BME280_humidity;BME280_pressure;Samples;Min_cycle;Max_cycle;Signal;HPM_P1;HPM_P2
2023/03/26 00:02:03;;;;;;;34.28;6.75;;;;;;;6.62;100.00;100481.28;5035096;28;20032;-77
2023/03/26 00:04:32;;;;;;;32.60;6.57;;;;;;;6.53;100.00;100472.66;5037019;28;20056;-78
2023/03/26 00:10:19;;;;;;;35.67;6.13;;;;;;;6.49;100.00;100468.75;5034813;28;20096;-78
2023/03/26 00:12:44;;;;;;;30.25;6.65;;;;;;;6.51;100.00;100480.81;5034498;28;20025;-77
2023/03/26 00:15:10;;;;;;;27.45;6.13;;;;;;;6.45;100.00;100471.00;5037413;28;20044;-78
2023/03/26 00:20:58;;;;;;;36.08;6.30;;;;;;;6.42;100.00;100484.66;5037245;28;20060;-77
2023/03/26 00:23:25;;;;;;;36.88;6.50;;;;;;;6.38;100.00;100472.81;5034122;28;20040;-78
2023/03/26 00:29:14;;;;;;;37.55;6.13;;;;;;;6.30;100.00;100478.25;5034470;28;20500;-79
2023/03/26 00:31:39;;;;;;;28.17;6.25;;;;;;;6.16;100.00;100453.47;5016345;28;20478;-78
2023/03/26 00:34:05;;;;;;;24.90;5.07;;;;;;;6.16;100.00;100465.91;5019801;28;20033;-79
2023/03/26 00:36:34;;;;;;;26.13;5.65;;;;;;;6.11;100.00;100457.72;5034083;28;20079;-79
2023/03/26 00:39:00;;;;;;;26.33;5.65;;;;;;;6.01;100.00;100442.13;5037072;28;20068;-79
2023/03/26 00:41:29;;;;;;;36.70;6.20;;;;;;;6.06;100.00;100442.34;5034001;28;20414;-78
2023/03/26 00:43:57;;;;;;;37.92;6.65;;;;;;;6.09;100.00;100442.00;5016173;28;20132;-79
2023/03/26 00:46:29;;;;;;;31.35;7.00;;;;;;;6.15;100.00;100448.34;5036945;28;20490;-79
2023/03/26 00:52:17;;;;;;;23.27;5.85;;;;;;;6.00;100.00;100431.69;5034062;28;20072;-80
2023/03/26 00:58:04;;;;;;;36.17;7.57;;;;;;;6.08;100.00;100432.38;5034139;28;20092;-80
2023/03/26 01:00:33;;;;;;;28.55;5.50;;;;;;;6.05;100.00;100431.94;5033810;28;20029;-80
2023/03/26 01:09:49;;;;;;;27.13;7.28;;;;;;;6.12;100.00;100411.59;5033620;28;20524;-80
2023/03/26 01:15:36;;;;;;;28.85;6.22;;;;;;;6.05;100.00;100408.03;5033878;28;20565;-79
2023/03/26 01:18:08;;;;;;;23.55;5.63;;;;;;;6.01;100.00;100404.97;5033343;28;20068;-79
2023/03/26 01:20:45;;;;;;;31.42;7.63;;;;;;;6.02;100.00;100401.31;5035156;28;20025;-78
2023/03/26 01:23:11;;;;;;;34.53;6.50;;;;;;;5.97;100.00;100390.44;5033380;28;20035;-78
2023/03/26 01:29:02;;;;;;;29.27;5.20;;;;;;;5.90;100.00;100384.28;5033502;28;20099;-77
2023/03/26 01:31:35;;;;;;;28.55;5.43;;;;;;;5.88;100.00;100381.00;5015544;28;20340;-76
2023/03/26 01:34:32;;;;;;;28.58;5.47;;;;;;;5.94;100.00;100387.38;5036205;28;20056;-76
2023/03/26 01:37:32;;;;;;;26.27;4.88;;;;;;;5.85;100.00;100374.25;4978301;28;20051;-79
2023/03/26 01:43:31;;;;;;;30.80;5.95;;;;;;;5.73;100.00;100365.16;5033021;28;20048;-78
2023/03/26 01:46:01;;;;;;;31.55;5.72;;;;;;;5.59;100.00;100353.66;5036031;28;20045;-78
2023/03/26 01:51:50;;;;;;;18.58;4.13;;;;;;;5.69;100.00;100369.22;5033347;28;20047;-78
2023/03/26 01:57:58;;;;;;;24.48;5.45;;;;;;;5.77;100.00;100362.94;5032857;28;20128;-79
2023/03/26 02:04:08;;;;;;;28.48;5.45;;;;;;;5.74;100.00;100336.81;5032903;28;20045;-80
2023/03/26 02:09:59;;;;;;;25.70;4.88;;;;;;;5.76;100.00;100345.38;4952403;29;20461;-76
2023/03/26 02:19:23;;;;;;;28.77;5.07;;;;;;;5.75;100.00;100318.03;5032903;28;20040;-78
2023/03/26 02:21:52;;;;;;;24.85;4.55;;;;;;;5.70;100.00;100309.03;5018393;28;20053;-77
2023/03/26 02:24:18;;;;;;;36.25;5.47;;;;;;;5.73;100.00;100320.06;5014676;28;20032;-77
2023/03/26 02:30:09;;;;;;;28.40;5.78;;;;;;;5.75;100.00;100314.56;5032624;28;20125;-78
2023/03/26 02:32:35;;;;;;;20.80;5.32;;;;;;;5.75;100.00;100311.91;5032210;28;20374;-77
2023/03/26 02:35:00;;;;;;;31.90;5.72;;;;;;;5.72;100.00;100304.34;5035379;28;20045;-77
2023/03/26 02:40:47;;;;;;;22.23;5.88;;;;;;;5.87;100.00;100305.06;5032776;28;20048;-76
2023/03/26 02:46:34;;;;;;;25.50;5.60;;;;;;;5.93;100.00;100295.53;5032346;28;20076;-79
2023/03/26 02:52:21;;;;;;;21.75;5.03;;;;;;;5.81;100.00;100277.50;5032436;28;20044;-78
2023/03/26 02:54:46;;;;;;;30.10;4.70;;;;;;;5.87;100.00;100271.38;5014325;28;20029;-78
2023/03/26 02:57:11;;;;;;;26.90;5.45;;;;;;;5.81;100.00;100261.56;5032013;28;20029;-78
2023/03/26 02:59:37;;;;;;;20.45;4.10;;;;;;;5.84;100.00;100261.19;5034980;28;20056;-78
2023/03/26 03:02:02;;;;;;;39.13;6.72;;;;;;;5.88;100.00;100262.41;5032010;28;20029;-79
2023/03/26 03:07:49;;;;;;;29.73;5.25;;;;;;;5.96;100.00;100248.19;5032476;28;20052;-78
2023/03/26 03:13:36;;;;;;;21.58;5.30;;;;;;;6.03;100.00;100253.50;5031710;28;20286;-78
2023/03/26 03:19:23;;;;;;;25.85;5.15;;;;;;;6.04;100.00;100241.88;5033376;28;20088;-79
2023/03/26 03:21:48;;;;;;;18.90;4.50;;;;;;;6.02;100.00;100233.28;5035192;28;20047;-77
2023/03/26 03:24:17;;;;;;;23.50;4.97;;;;;;;6.06;100.00;100226.56;5038139;28;20124;-79
2023/03/26 03:30:05;;;;;;;33.90;6.00;;;;;;;6.07;100.00;100220.25;5038112;28;20079;-78
2023/03/26 03:35:52;;;;;;;16.98;3.60;;;;;;;6.09;100.00;100216.41;5035431;28;20414;-77
2023/03/26 03:38:18;;;;;;;22.23;4.22;;;;;;;6.11;100.00;100214.34;5037977;28;20045;-77
2023/03/26 03:40:43;;;;;;;18.50;4.03;;;;;;;6.15;100.00;100223.56;5034969;28;20025;-78
2023/03/26 03:46:31;;;;;;;19.80;4.97;;;;;;;6.08;100.00;100217.41;5035054;28;20045;-78
2023/03/26 03:48:56;;;;;;;24.80;4.88;;;;;;;6.04;100.00;100210.84;5018083;28;20429;-78
2023/03/26 03:51:22;;;;;;;15.80;3.97;;;;;;;6.00;100.00;100212.28;5036744;28;20116;-78
2023/03/26 03:53:48;;;;;;;21.00;4.20;;;;;;;5.92;100.00;100201.84;5034758;28;20084;-78
2023/03/26 03:56:17;;;;;;;22.80;4.30;;;;;;;5.87;100.00;100199.75;5037461;28;20417;-78
2023/03/26 04:02:04;;;;;;;21.92;3.90;;;;;;;5.87;100.00;100188.31;5034654;28;20413;-78
2023/03/26 04:04:31;;;;;;;18.80;4.40;;;;;;;5.88;100.00;100182.81;5034298;28;20017;-78
2023/03/26 04:10:18;;;;;;;17.30;4.00;;;;;;;5.94;100.00;100186.53;5034724;28;20048;-77
2023/03/26 04:16:06;;;;;;;16.85;3.47;;;;;;;5.89;100.00;100163.25;5034656;28;20117;-79
2023/03/26 04:21:53;;;;;;;18.50;3.67;;;;;;;5.90;100.00;100150.81;5037389;28;20552;-80
2023/03/26 04:24:21;;;;;;;17.23;3.92;;;;;;;5.94;100.00;100145.91;5034036;28;20061;-80
2023/03/26 04:30:14;;;;;;;23.65;4.43;;;;;;;5.95;100.00;100136.94;5033940;28;20103;-77
2023/03/26 04:32:41;;;;;;;21.95;3.50;;;;;;;5.87;100.00;100128.13;5033664;28;20092;-77
2023/03/26 04:35:10;;;;;;;20.50;3.38;;;;;;;5.94;100.00;100135.31;5036919;28;20406;-77
2023/03/26 04:37:38;;;;;;;18.23;4.03;;;;;;;5.92;100.00;100127.56;5033825;28;20044;-76
2023/03/26 04:40:08;;;;;;;22.05;4.38;;;;;;;5.85;100.00;100108.94;5016246;28;20024;-78
2023/03/26 04:45:55;;;;;;;15.23;3.72;;;;;;;5.93;100.00;100109.78;5034053;28;20127;-78
2023/03/26 04:48:21;;;;;;;14.27;3.55;;;;;;;5.97;100.00;100111.03;5036601;28;20089;-78
2023/03/26 04:54:11;;;;;;;21.30;3.90;;;;;;;6.02;100.00;100101.44;5034010;28;20148;-77
2023/03/26 04:59:58;;;;;;;12.20;4.18;;;;;;;5.97;100.00;100090.63;5035652;28;20421;-78
2023/03/26 05:02:24;;;;;;;18.77;4.13;;;;;;;5.94;100.00;100080.41;5034443;28;20061;-78
2023/03/26 05:08:11;;;;;;;18.05;4.32;;;;;;;5.91;100.00;100072.84;5033718;28;20035;-78
2023/03/26 05:13:57;;;;;;;14.38;3.60;;;;;;;5.89;100.00;100067.75;5033669;28;20175;-77
2023/03/26 05:16:23;;;;;;;20.05;4.68;;;;;;;5.84;100.00;100062.22;5033118;28;20112;-77
2023/03/26 05:18:50;;;;;;;19.83;4.70;;;;;;;5.85;100.00;100063.84;5033188;28;20175;-77
2023/03/26 05:24:37;;;;;;;16.10;4.18;;;;;;;5.93;100.00;100064.69;5033405;28;20092;-78
2023/03/26 05:27:02;;;;;;;15.32;3.65;;;;;;;5.92;100.00;100055.09;5036190;28;20049;-77
2023/03/26 05:29:27;;;;;;;13.38;3.55;;;;;;;5.89;100.00;100051.84;5033303;28;20029;-77
2023/03/26 05:35:18;;;;;;;17.17;5.47;;;;;;;5.93;100.00;100040.81;5033229;28;20083;-77
2023/03/26 05:37:45;;;;;;;18.50;4.35;;;;;;;5.97;100.00;100042.03;5015501;28;20064;-77
2023/03/26 05:43:33;;;;;;;17.15;3.95;;;;;;;6.02;100.00;100040.41;5033158;28;20120;-76
2023/03/26 05:45:58;;;;;;;19.75;4.80;;;;;;;6.00;100.00;100021.22;5018377;28;20140;-77
2023/03/26 05:48:24;;;;;;;15.73;4.20;;;;;;;6.04;100.00;100029.56;5032723;28;20065;-77
2023/03/26 05:54:11;;;;;;;16.42;4.57;;;;;;;6.05;100.00;100020.59;5033330;28;20052;-77
2023/03/26 05:59:58;;;;;;;22.48;5.70;;;;;;;6.04;100.00;100022.44;5032894;28;20528;-77
2023/03/26 06:05:45;;;;;;;28.85;5.20;;;;;;;6.09;100.00;100021.84;5032696;28;20073;-78
2023/03/26 06:08:10;;;;;;;26.23;4.50;;;;;;;6.08;100.00;100012.25;5032645;28;20017;-79
2023/03/26 06:10:38;;;;;;;13.95;3.78;;;;;;;6.08;100.00;100013.06;5032661;28;20489;-78
2023/03/26 06:13:03;;;;;;;22.92;4.53;;;;;;;6.11;100.00;100010.00;5035430;28;20464;-77
2023/03/26 06:22:28;;;;;;;18.65;4.60;;;;;;;6.09;100.00;99996.13;5032822;28;20124;-77
2023/03/26 06:28:16;;;;;;;15.63;4.50;;;;;;;6.07;100.00;99987.56;5032661;28;20048;-76
2023/03/26 06:30:41;;;;;;;23.55;5.22;;;;;;;6.02;100.00;99978.56;5035297;28;20041;-75
2023/03/26 06:36:28;;;;;;;25.02;5.63;;;;;;;6.00;100.00;99969.97;5032454;28;20072;-77
2023/03/26 06:42:15;;;;;;;25.55;4.95;;;;;;;6.04;100.00;99968.53;5032233;28;20609;-76
2023/03/26 06:44:40;;;;;;;24.45;4.70;;;;;;;6.08;100.00;99977.75;5035016;28;20128;-76
2023/03/26 06:47:05;;;;;;;18.58;4.90;;;;;;;6.06;100.00;99971.81;5032078;28;20128;-76
2023/03/26 06:49:31;;;;;;;18.53;4.13;;;;;;;6.10;100.00;99970.41;5031947;28;20116;-76
2023/03/26 06:55:18;;;;;;;15.20;4.90;;;;;;;6.18;100.00;99986.09;5031690;28;20088;-75
2023/03/26 06:57:47;;;;;;;17.27;4.38;;;;;;;6.21;100.00;99996.31;5034810;28;20045;-76
2023/03/26 07:03:34;;;;;;;16.98;4.13;;;;;;;6.13;100.00;99978.75;5034454;28;20144;-76
2023/03/26 07:09:21;;;;;;;21.02;5.38;;;;;;;6.14;100.00;99982.22;5032244;28;20088;-76
2023/03/26 07:15:09;;;;;;;21.65;4.93;;;;;;;6.09;100.00;99971.41;5031850;28;20116;-76
2023/03/26 07:17:34;;;;;;;18.73;5.03;;;;;;;6.12;100.00;99976.31;5034651;28;20121;-76
2023/03/26 07:23:21;;;;;;;24.23;5.35;;;;;;;6.17;100.00;99977.31;5031806;28;20092;-76
2023/03/26 07:29:19;;;;;;;17.67;5.72;;;;;;;6.14;100.00;99959.16;5031979;28;20083;-76
2023/03/26 07:35:19;;;;;;;24.20;5.53;;;;;;;6.22;100.00;99964.25;5031851;28;20050;-75
2023/03/26 07:41:40;;;;;;;19.27;6.13;;;;;;;6.25;100.00;99959.53;5031851;28;20111;-76
2023/03/26 07:47:34;;;;;;;23.27;4.90;;;;;;;6.20;100.00;99952.19;5031514;28;20032;-76
2023/03/26 07:50:00;;;;;;;21.00;5.95;;;;;;;6.25;100.00;99957.69;5034314;28;20041;-75
2023/03/26 07:56:02;;;;;;;19.45;5.70;;;;;;;6.32;100.00;99953.19;5034611;28;20378;-78
2023/03/26 08:02:12;;;;;;;19.08;6.45;;;;;;;6.32;100.00;99947.88;5028044;28;20048;-78
2023/03/26 08:04:56;;;;;;;18.80;5.95;;;;;;;6.36;100.00;99946.47;5031025;28;20034;-78
2023/03/26 08:10:37;;;;;;;18.52;5.00;;;;;;;6.40;100.00;99942.34;5034548;28;20380;-80
2023/03/26 08:16:50;;;;;;;14.65;5.28;;;;;;;6.34;100.00;99926.41;5034857;28;20072;-80
2023/03/26 08:22:40;;;;;;;14.02;5.88;;;;;;;6.47;100.00;99929.06;5034869;28;20041;-78
2023/03/26 08:28:52;;;;;;;19.15;6.82;;;;;;;6.62;100.00;99942.88;5034452;28;20051;-80
2023/03/26 08:34:39;;;;;;;17.73;5.90;;;;;;;6.67;100.00;99916.53;5034257;28;20091;-80
2023/03/26 08:40:57;;;;;;;26.27;6.80;;;;;;;6.73;100.00;99930.78;5036202;28;20092;-78
2023/03/26 08:47:01;;;;;;;19.88;6.90;;;;;;;6.82;100.00;99937.47;5034845;28;20141;-77
2023/03/26 08:53:02;;;;;;;24.92;5.97;;;;;;;6.88;100.00;99933.97;5034226;28;20048;-76
2023/03/26 08:59:14;;;;;;;15.10;5.10;;;;;;;6.90;100.00;99929.25;5034372;28;20048;-76
2023/03/26 09:05:13;;;;;;;16.08;5.85;;;;;;;7.00;100.00;99916.34;5034091;28;20485;-76
2023/03/26 09:11:17;;;;;;;15.30;5.88;;;;;;;7.13;100.00;99926.06;5033962;28;20512;-76
2023/03/26 09:20:54;;;;;;;16.38;4.57;;;;;;;7.11;100.00;99923.63;5034232;28;20120;-78
2023/03/26 09:27:00;;;;;;;12.63;3.83;;;;;;;6.97;100.00;99922.09;5033921;28;20087;-80
2023/03/26 09:33:19;;;;;;;13.75;4.40;;;;;;;7.02;100.00;99914.28;5033676;28;20052;-81
2023/03/26 09:42:59;;;;;;;19.60;7.18;;;;;;;7.32;100.00;99914.50;5033211;28;20087;-81
2023/03/26 09:49:14;;;;;;;14.75;5.05;;;;;;;7.44;100.00;99917.25;5032935;28;20084;-79
2023/03/26 09:55:29;;;;;;;11.13;4.63;;;;;;;7.28;100.00;99897.34;5033333;28;20071;-79
2023/03/26 10:01:24;;;;;;;7.90;3.25;;;;;;;7.23;100.00;99910.47;5032976;28;19924;-76
2023/03/26 10:07:34;;;;;;;7.55;3.55;;;;;;;7.18;100.00;99922.75;5032825;28;20638;-76
2023/03/26 10:16:51;;;;;;;5.88;2.70;;;;;;;6.99;100.00;99924.53;5032978;28;20060;-77
2023/03/26 10:22:41;;;;;;;7.85;2.75;;;;;;;6.81;100.00;99927.88;5032869;28;20033;-77
2023/03/26 10:32:18;;;;;;;6.35;2.85;;;;;;;7.22;100.00;99932.75;5032805;28;20041;-78
2023/03/26 10:38:14;;;;;;;8.68;3.42;;;;;;;7.42;100.00;99928.13;5032569;28;20044;-77
2023/03/26 10:44:25;;;;;;;14.45;4.55;;;;;;;7.59;100.00;99933.75;5027968;28;20150;-77
2023/03/26 10:50:35;;;;;;;10.05;4.45;;;;;;;7.40;100.00;99937.34;5032451;28;20088;-77
2023/03/26 10:56:24;;;;;;;9.90;3.35;;;;;;;7.25;100.00;99939.50;5032359;28;20053;-75
2023/03/26 11:02:29;;;;;;;7.78;4.20;;;;;;;7.29;100.00;99949.50;5032558;28;20389;-76
2023/03/26 11:08:42;;;;;;;8.05;3.85;;;;;;;7.40;100.00;99945.31;5032169;28;20052;-77
2023/03/26 11:14:41;;;;;;;10.23;4.53;;;;;;;7.66;100.00;99950.44;5032184;28;20052;-75
2023/03/26 11:20:47;;;;;;;9.80;3.50;;;;;;;7.44;100.00;99951.84;5032240;28;20390;-76
2023/03/26 11:23:31;;;;;;;7.80;3.95;;;;;;;7.46;100.00;99955.91;5017347;28;20054;-76
2023/03/26 11:29:35;;;;;;;7.20;3.28;;;;;;;7.55;100.00;99955.66;5031777;28;20045;-76
2023/03/26 11:35:30;;;;;;;9.32;3.83;;;;;;;7.81;100.00;99962.63;5031883;28;20044;-78
2023/03/26 11:41:01;;;;;;;6.57;3.30;;;;;;;7.98;100.00;99977.00;5033662;28;19939;-78
2023/03/26 11:46:57;;;;;;;9.40;4.28;;;;;;;8.03;100.00;99982.47;5035131;28;20539;-77
2023/03/26 11:52:45;;;;;;;11.00;4.65;;;;;;;8.14;100.00;99965.81;5035216;28;20044;-76
2023/03/26 11:58:52;;;;;;;5.75;3.20;;;;;;;8.15;100.00;99974.63;5035095;28;20049;-77
2023/03/26 12:04:49;;;;;;;8.30;3.95;;;;;;;8.20;100.00;99978.25;5034684;28;20040;-76
2023/03/26 12:10:41;;;;;;;11.20;4.07;;;;;;;8.15;100.00;99971.94;5034907;28;20044;-77
2023/03/26 12:16:28;;;;;;;10.82;4.47;;;;;;;8.42;100.00;99992.00;5034974;28;20069;-76
2023/03/26 12:22:40;;;;;;;6.47;3.33;;;;;;;8.49;100.00;99987.41;5034810;28;20076;-76
2023/03/26 12:28:30;;;;;;;5.40;4.28;;;;;;;8.49;100.00;99992.72;5037707;28;20036;-76
2023/03/26 12:34:20;;;;;;;6.68;3.47;;;;;;;8.30;100.00;99994.53;5036510;28;20112;-76
2023/03/26 12:40:26;;;;;;;9.25;3.40;;;;;;;8.29;100.00;99994.75;5034450;28;20120;-76
2023/03/26 12:49:37;;;;;;;8.07;3.47;;;;;;;8.79;100.00;100010.66;5034434;28;20497;-76
2023/03/26 12:55:46;;;;;;;6.88;4.53;;;;;;;9.04;100.00;100007.91;5034223;28;20052;-75
2023/03/26 13:01:57;;;;;;;6.75;3.92;;;;;;;9.57;100.00;100018.66;5034247;28;20544;-74
2023/03/26 13:07:56;;;;;;;5.80;3.63;;;;;;;9.50;100.00;100018.75;5034034;28;20060;-76
2023/03/26 13:20:38;;;;;;;4.47;2.95;;;;;;;9.11;100.00;100028.09;5036600;28;20192;-76
2023/03/26 13:26:50;;;;;;;5.15;2.10;;;;;;;8.75;100.00;100025.47;5036601;28;20039;-76
2023/03/26 13:29:27;;;;;;;3.72;2.17;;;;;;;8.55;100.00;100031.81;5033361;28;20036;-75
2023/03/26 13:35:29;;;;;;;5.70;2.95;;;;;;;8.16;100.00;100048.94;5033816;28;20095;-76
2023/03/26 13:41:37;;;;;;;5.40;2.70;;;;;;;7.75;100.00;100046.78;5033201;28;20413;-76
2023/03/26 13:47:27;;;;;;;8.15;3.72;;;;;;;7.69;100.00;100052.97;5033434;28;20430;-75
2023/03/26 13:53:26;;;;;;;7.75;4.72;;;;;;;7.56;100.00;100047.75;5033186;28;20100;-74
2023/03/26 13:59:19;;;;;;;10.90;6.38;;;;;;;7.77;100.00;100074.81;5033255;28;20049;-75
2023/03/26 14:08:43;;;;;;;12.20;5.57;;;;;;;7.60;100.00;100073.69;5033260;28;20049;-75
2023/03/26 14:14:42;;;;;;;11.55;4.90;;;;;;;7.57;100.00;100087.44;5033199;28;20128;-76
2023/03/26 14:20:51;;;;;;;12.30;6.20;;;;;;;7.68;100.00;100104.56;5033064;28;20048;-75
2023/03/26 14:26:38;;;;;;;12.55;5.22;;;;;;;7.54;100.00;100108.31;5032961;28;20052;-77
2023/03/26 14:32:39;;;;;;;16.52;6.78;;;;;;;7.32;100.00;100108.63;5032861;28;20063;-75
2023/03/26 14:38:32;;;;;;;16.30;5.50;;;;;;;7.40;100.00;100131.50;5033045;28;20084;-75
2023/03/26 14:44:28;;;;;;;10.68;4.10;;;;;;;7.05;100.00;100136.31;5032751;28;20088;-78
2023/03/26 14:53:44;;;;;;;9.38;3.80;;;;;;;7.00;100.00;100147.56;5032641;28;20088;-77
2023/03/26 14:59:50;;;;;;;14.32;4.95;;;;;;;7.13;100.00;100167.97;5032313;28;20040;-77
2023/03/26 15:05:55;;;;;;;12.63;4.05;;;;;;;7.01;100.00;100170.47;5032395;28;20072;-75
2023/03/26 15:12:05;;;;;;;19.33;6.32;;;;;;;7.03;100.00;100183.56;5032476;28;20147;-77
2023/03/26 15:18:24;;;;;;;17.58;5.82;;;;;;;7.09;100.00;100196.00;5035927;28;20091;-76
2023/03/26 15:21:28;;;;;;;13.82;4.18;;;;;;;7.12;100.00;100192.94;5002133;28;20558;-76
2023/03/26 15:27:23;;;;;;;11.82;4.22;;;;;;;7.02;100.00;100205.84;5035450;28;20052;-76
2023/03/26 15:33:33;;;;;;;12.95;3.85;;;;;;;6.94;100.00;100204.22;5035526;28;20052;-78
2023/03/26 15:39:43;;;;;;;17.20;4.88;;;;;;;6.93;100.00;100215.03;5035391;28;20413;-79
2023/03/26 15:45:36;;;;;;;17.98;4.85;;;;;;;7.03;100.00;100236.72;5035041;28;20064;-76
2023/03/26 15:51:31;;;;;;;19.50;4.53;;;;;;;6.97;100.00;100256.16;5035205;28;20059;-78
2023/03/26 15:57:28;;;;;;;21.35;5.85;;;;;;;6.99;100.00;100265.53;5035294;28;20147;-79
2023/03/26 16:03:26;;;;;;;13.45;5.93;;;;;;;6.87;100.00;100261.84;5035014;28;20047;-79
2023/03/26 16:09:28;;;;;;;14.38;4.05;;;;;;;6.83;100.00;100274.72;5034958;28;20430;-79
2023/03/26 16:15:24;;;;;;;13.35;3.42;;;;;;;6.62;100.00;100274.91;5034727;28;20386;-79
2023/03/26 16:21:21;;;;;;;24.20;4.93;;;;;;;6.41;100.00;100293.66;5034663;28;20052;-78
2023/03/26 16:27:14;;;;;;;6.30;2.72;;;;;;;6.59;100.00;100309.84;5033574;28;20044;-79
2023/03/26 16:33:14;;;;;;;12.48;4.75;;;;;;;6.30;100.00;100334.88;5034415;28;20040;-79
2023/03/26 16:39:04;;;;;;;9.30;3.17;;;;;;;6.19;100.00;100335.44;5034469;28;20053;-80
2023/03/26 16:48:25;;;;;;;10.07;3.38;;;;;;;6.15;100.00;100368.72;5034177;28;20548;-80
2023/03/26 16:54:48;;;;;;;13.40;3.58;;;;;;;6.09;100.00;100382.78;5034185;28;20060;-76
2023/03/26 17:01:31;;;;;;;6.28;2.80;;;;;;;6.09;100.00;100380.13;5034024;28;20065;-78
2023/03/26 17:07:31;;;;;;;10.30;2.95;;;;;;;5.77;100.00;100416.81;4973269;28;20586;-79
2023/03/26 17:13:45;;;;;;;69.68;29.30;;;;;;;5.80;100.00;100436.84;5033940;28;20045;-79
2023/03/26 17:19:50;;;;;;;11.93;4.15;;;;;;;5.70;100.00;100447.78;5033703;28;20056;-78
2023/03/26 17:25:30;;;;;;;6.55;2.55;;;;;;;5.88;100.00;100461.41;5033734;28;19976;-79
2023/03/26 17:31:30;;;;;;;10.52;4.22;;;;;;;5.67;100.00;100468.56;5033733;28;20182;-80
2023/03/26 17:37:19;;;;;;;8.27;2.38;;;;;;;5.89;100.00;100492.25;5033657;28;20397;-78
2023/03/26 17:39:47;;;;;;;14.45;3.88;;;;;;;5.80;100.00;100496.03;5018453;28;20060;-77
2023/03/26 17:45:36;;;;;;;15.13;3.70;;;;;;;5.42;100.00;100500.78;5036254;28;20123;-78
2023/03/26 17:51:48;;;;;;;9.55;2.78;;;;;;;5.59;100.00;100522.56;5031591;28;20048;-77
2023/03/26 17:57:49;;;;;;;5.88;2.70;;;;;;;5.61;100.00;100544.41;5033106;28;20410;-76
2023/03/26 18:03:48;;;;;;;6.57;2.45;;;;;;;5.59;100.00;100546.44;5035234;28;20049;-78
2023/03/26 18:09:44;;;;;;;9.80;2.35;;;;;;;5.59;100.00;100575.59;5033214;28;20040;-78
2023/03/26 18:15:37;;;;;;;8.05;2.78;;;;;;;5.38;100.00;100578.22;5033073;28;20064;-76
2023/03/26 18:21:38;;;;;;;37.15;11.93;;;;;;;5.23;100.00;100596.81;5033169;28;20271;-76
2023/03/26 18:27:34;;;;;;;10.73;3.45;;;;;;;5.17;100.00;100593.06;5032909;28;20060;-79
2023/03/26 18:33:21;;;;;;;9.45;2.58;;;;;;;5.29;100.00;100619.94;5032735;28;20080;-78
2023/03/26 18:35:56;;;;;;;6.88;3.17;;;;;;;5.21;100.00;100633.28;5017866;28;20037;-79
2023/03/26 18:41:43;;;;;;;6.70;2.90;;;;;;;5.23;100.00;100641.88;5035454;28;20437;-76
2023/03/26 18:44:15;;;;;;;7.22;2.13;;;;;;;5.04;100.00;100650.38;5032323;28;20037;-76
2023/03/26 18:50:03;;;;;;;4.60;1.98;;;;;;;4.99;100.00;100666.81;5031756;28;20052;-76
2023/03/26 18:55:51;;;;;;;7.88;2.92;;;;;;;4.79;100.00;100668.34;5032722;28;20072;-77
2023/03/26 19:01:38;;;;;;;5.80;2.20;;;;;;;4.78;100.00;100690.53;5032772;28;20438;-79
2023/03/26 19:07:25;;;;;;;11.63;2.80;;;;;;;4.51;100.00;100698.06;5032574;28;20409;-78
2023/03/26 19:13:13;;;;;;;2.67;1.88;;;;;;;4.52;100.00;100698.88;5032417;28;20095;-79
2023/03/26 19:19:05;;;;;;;16.33;3.05;;;;;;;4.45;100.00;100712.00;5032138;28;20128;-77
2023/03/26 19:24:58;;;;;;;11.73;5.50;;;;;;;4.48;100.00;100726.72;5031987;28;20153;-76
2023/03/26 19:30:46;;;;;;;7.53;2.03;;;;;;;4.38;100.00;100752.59;5032358;28;20553;-75
2023/03/26 19:36:35;;;;;;;5.57;2.00;;;;;;;4.57;100.00;100760.88;5031907;28;20045;-80
2023/03/26 19:42:30;;;;;;;9.13;2.00;;;;;;;4.51;100.00;100777.47;5032047;28;20107;-79
2023/03/26 19:48:21;;;;;;;7.20;2.40;;;;;;;4.56;100.00;100793.66;5031552;28;20040;-79
2023/03/26 19:54:14;;;;;;;7.95;2.05;;;;;;;4.53;100.00;100801.94;5031659;28;20133;-77
2023/03/26 20:00:12;;;;;;;8.80;3.20;;;;;;;4.40;100.00;100820.25;5031871;28;20048;-76
2023/03/26 20:05:59;;;;;;;6.45;2.53;;;;;;;4.38;100.00;100813.47;5034846;28;20044;-77
2023/03/26 20:11:47;;;;;;;9.63;3.65;;;;;;;4.64;100.00;100838.63;5035143;28;20056;-79
2023/03/26 20:17:34;;;;;;;3.58;2.20;;;;;;;4.62;100.00;100845.91;5034862;28;20064;-76
2023/03/26 20:23:20;;;;;;;3.83;1.73;;;;;;;4.62;100.00;100861.78;5034749;28;20048;-74
2023/03/26 20:29:08;;;;;;;10.15;2.67;;;;;;;4.37;100.00;100870.06;5034892;28;20099;-76
2023/03/26 20:34:56;;;;;;;6.70;2.80;;;;;;;4.05;100.00;100863.91;5034477;28;20056;-75
2023/03/26 20:40:43;;;;;;;10.25;3.00;;;;;;;3.99;100.00;100888.38;5034701;28;20111;-76
2023/03/26 20:46:31;;;;;;;9.68;2.83;;;;;;;3.88;100.00;100908.09;5034461;28;20056;-77
2023/03/26 20:55:46;;;;;;;12.20;2.78;;;;;;;3.62;100.00;100915.41;5034118;28;20044;-75
2023/03/26 20:58:13;;;;;;;2.92;1.73;;;;;;;3.62;100.00;100918.06;5036915;28;20056;-76
2023/03/26 21:04:03;;;;;;;6.80;2.20;;;;;;;3.63;100.00;100927.63;5034154;28;20366;-76
2023/03/26 21:09:50;;;;;;;2.63;1.65;;;;;;;3.43;100.00;100920.03;5036770;28;20187;-76
2023/03/26 21:15:37;;;;;;;9.27;2.50;;;;;;;3.42;100.00;100960.66;5034048;28;20063;-78
2023/03/26 21:21:49;;;;;;;5.25;2.00;;;;;;;3.15;100.00;100966.25;5033779;28;20413;-79
2023/03/26 21:27:58;;;;;;;9.63;2.45;;;;;;;2.96;100.00;100985.06;5033784;28;20044;-79
2023/03/26 21:33:46;;;;;;;12.50;2.15;;;;;;;2.89;100.00;100994.56;5033754;28;20577;-81
2023/03/26 21:39:33;;;;;;;9.68;2.67;;;;;;;2.71;100.00;100998.16;5033559;28;20426;-79
2023/03/26 21:45:21;;;;;;;9.95;2.72;;;;;;;2.76;100.00;101022.28;5033105;28;20052;-80
2023/03/26 21:51:13;;;;;;;9.82;2.90;;;;;;;2.75;100.00;101041.75;5033411;28;20040;-78
2023/03/26 21:57:09;;;;;;;9.48;2.58;;;;;;;2.70;100.00;101033.47;5033321;28;20068;-78
2023/03/26 22:03:10;;;;;;;9.82;2.03;;;;;;;2.56;100.00;101056.97;5033226;28;20060;-75
2023/03/26 22:08:58;;;;;;;10.93;3.35;;;;;;;2.42;100.00;101063.66;5033386;28;20433;-77
2023/03/26 22:14:44;;;;;;;8.23;2.30;;;;;;;2.28;100.00;101070.31;5033058;28;20137;-76
2023/03/26 22:20:32;;;;;;;10.95;2.28;;;;;;;2.18;100.00;101072.25;5032945;28;20147;-78
2023/03/26 22:26:22;;;;;;;12.40;3.28;;;;;;;2.09;100.00;101081.91;5031926;28;20148;-78
2023/03/26 22:28:48;;;;;;;6.13;2.83;;;;;;;2.01;100.00;101086.25;5032584;28;20474;-77
2023/03/26 22:34:36;;;;;;;7.90;2.40;;;;;;;1.89;100.00;101098.88;5032761;28;20036;-77
2023/03/26 22:40:23;;;;;;;8.38;2.00;;;;;;;1.85;100.00;101113.34;5032616;28;20120;-78
2023/03/26 22:46:11;;;;;;;3.53;2.05;;;;;;;1.73;100.00;101123.25;5032149;28;20040;-77
2023/03/26 22:51:58;;;;;;;7.00;2.35;;;;;;;1.63;100.00;101129.56;5032285;28;20107;-76
2023/03/26 22:57:45;;;;;;;6.00;1.75;;;;;;;1.48;100.00;101119.56;5032502;28;20565;-79
2023/03/26 23:03:34;;;;;;;5.60;2.30;;;;;;;1.44;100.00;101138.41;5032373;28;20116;-76
2023/03/26 23:09:21;;;;;;;11.00;2.45;;;;;;;1.45;100.00;101171.72;5032333;28;20044;-77
2023/03/26 23:15:09;;;;;;;6.82;2.13;;;;;;;1.42;100.00;101187.78;5032436;28;20041;-76
2023/03/26 23:20:57;;;;;;;6.05;2.10;;;;;;;1.48;100.00;101184.59;5035108;28;20444;-78
2023/03/26 23:26:43;;;;;;;14.98;3.03;;;;;;;1.69;100.00;101194.88;5032061;28;20493;-77
2023/03/26 23:32:31;;;;;;;9.57;2.10;;;;;;;1.87;100.00;101203.66;5031965;28;20172;-77
2023/03/26 23:34:57;;;;;;;6.05;2.00;;;;;;;1.91;100.00;101189.19;5034714;28;20457;-77
2023/03/26 23:37:22;;;;;;;9.18;2.78;;;;;;;2.01;100.00;101199.66;5034245;28;20022;-76
2023/03/26 23:43:09;;;;;;;6.65;2.10;;;;;;;2.08;100.00;101212.13;5035528;28;20060;-79
2023/03/26 23:48:58;;;;;;;12.07;3.92;;;;;;;2.25;100.00;101228.91;5035321;28;20096;-79
2023/03/26 23:54:46;;;;;;;11.70;2.58;;;;;;;2.36;100.00;101241.06;5035163;28;20508;-79
